»·PEaware :: N5GL KSNA-KBFL

N5GL :: KSNA-KBFL

FLIGHT INFORMATION

Flight Status: Arrived
Operator: Privately registered:
United States
More flights under this callsign
Pilot: Georg L. (13308)
Aircraft: SOCATA TBM-900
(TBM9)
More flights by this aircraft type
Origin: KSNA John Wayne-Orange Co
United States
Destination: KBFL Meadows
United States
More flights between these airports :: More routes between these airports
Route: +MUSEL8 SLI V459 LHS FASTO2
File this flight plan on PilotEdge
Remarks:
Altitude:
(Current/Filed)
22,000ft
Speed:
(Current/Filed)
311kts
Departed: 18-Apr-20 10:03 AM
Arrived: 18-Apr-20 10:42 AM
Distance/Time
Traveled:
120nm/0:38
Distance/Time
To Go:
Arrived

Flight Plot

Page will automatically refresh every two minutes.

Flight plan parsing failed; only flown route is shown


Map Options




Map Legend


Flown Route
Filed Route
Departure Airport
Arrival Airport
Navaid (VOR, NDB)
Fix

Horizontal Profiles

Position Reports

Time Latitude Longitude Heading Altitude Ground
Speed
18-Apr-20 09:46 33.672028 -117.867447 204 59ft 0kts
18-Apr-20 09:46 33.672028 -117.867447 204 59ft 0kts
18-Apr-20 09:48 33.672028 -117.867447 204 59ft 0kts
18-Apr-20 09:49 33.672028 -117.867447 204 59ft 0kts
18-Apr-20 09:49 33.672028 -117.867447 204 59ft 0kts
18-Apr-20 09:50 33.672028 -117.867447 204 59ft 0kts
18-Apr-20 09:51 33.672028 -117.867447 204 59ft 0kts
18-Apr-20 09:53 33.672028 -117.867447 204 59ft 0kts
18-Apr-20 09:53 33.672028 -117.867447 204 59ft 0kts
18-Apr-20 09:54 33.672028 -117.867447 204 59ft 0kts
18-Apr-20 09:55 33.672028 -117.867447 204 59ft 0kts
18-Apr-20 09:56 33.672028 -117.867447 204 59ft 0kts
18-Apr-20 09:57 33.671894 -117.867714 298 59ft 0kts
18-Apr-20 09:58 33.672833 -117.867582 43 59ft 15kts
18-Apr-20 09:59 33.677723 -117.864200 27 59ft 21kts
18-Apr-20 10:00 33.680593 -117.862908 287 59ft 7kts
18-Apr-20 10:01 33.681184 -117.864306 298 59ft 0kts
18-Apr-20 10:02 33.678259 -117.867225 207 59ft 76kts
18-Apr-20 10:03 33.650079 -117.886933 198 1666ft 131kts
18-Apr-20 10:04 33.615280 -117.893403 192 4065ft 129kts
18-Apr-20 10:05 33.571892 -117.901500 191 5034ft 207kts
18-Apr-20 10:06 33.550004 -117.956568 261 6569ft 188kts
18-Apr-20 10:07 33.544300 -118.016701 289 8294ft 182kts
18-Apr-20 10:08 33.594003 -118.024447 353 9986ft 197kts
18-Apr-20 10:09 33.648192 -118.031091 347 11740ft 197kts
18-Apr-20 10:10 33.702631 -118.040431 346 13326ft 199kts
18-Apr-20 10:11 33.757837 -118.050199 345 14844ft 203kts
18-Apr-20 10:12 33.810576 -118.070380 328 16452ft 199kts
18-Apr-20 10:13 33.860904 -118.099277 327 17995ft 201kts
18-Apr-20 10:14 33.911879 -118.128583 327 19499ft 204kts
18-Apr-20 10:15 33.963287 -118.158193 326 20953ft 206kts
18-Apr-20 10:16 34.015609 -118.188388 325 22126ft 214kts
18-Apr-20 10:17 34.075594 -118.223089 327 22133ft 253kts
18-Apr-20 10:18 34.139165 -118.259834 327 22128ft 262kts
18-Apr-20 10:19 34.205597 -118.298309 327 22126ft 265kts
18-Apr-20 10:20 34.272487 -118.337139 327 22129ft 266kts
18-Apr-20 10:21 34.339394 -118.376043 327 22136ft 266kts
18-Apr-20 10:22 34.406137 -118.414930 327 22141ft 266kts
18-Apr-20 10:23 34.474581 -118.454922 328 21240ft 286kts
18-Apr-20 10:24 34.547784 -118.497713 329 19653ft 296kts
18-Apr-20 10:25 34.622392 -118.541408 329 18064ft 296kts
18-Apr-20 10:26 34.692372 -118.586507 317 16462ft 289kts
18-Apr-20 10:27 34.753853 -118.649067 317 14870ft 285kts
18-Apr-20 10:28 34.812829 -118.709172 317 13980ft 267kts
18-Apr-20 10:29 34.867934 -118.765441 317 13988ft 254kts
18-Apr-20 10:30 34.921779 -118.820596 318 13989ft 252kts
18-Apr-20 10:31 34.981517 -118.861401 357 13997ft 258kts
18-Apr-20 10:32 35.055706 -118.862332 358 13025ft 292kts
18-Apr-20 10:33 35.124497 -118.864330 358 10554ft 293kts
18-Apr-20 10:34 35.203621 -118.866583 358 7525ft 278kts
18-Apr-20 10:35 35.277740 -118.871344 334 4951ft 248kts
18-Apr-20 10:36 35.326706 -118.913116 279 3772ft 225kts
18-Apr-20 10:37 35.360642 -118.967745 316 2457ft 175kts
18-Apr-20 10:38 35.391344 -119.004805 316 1627ft 152kts
18-Apr-20 10:39 35.416375 -119.035068 317 945ft 87kts
18-Apr-20 10:40 35.432038 -119.054019 317 521ft 70kts
18-Apr-20 10:41 35.440176 -119.063441 22 495ft 12kts
18-Apr-20 10:42 35.440599 -119.062096 135 497ft 4kts
18-Apr-20 10:43 35.436788 -119.057512 135 494ft 29kts
18-Apr-20 10:44 35.432111 -119.051835 135 492ft 20kts
18-Apr-20 10:45 35.429899 -119.048478 59 491ft 5kts
18-Apr-20 10:46 35.430007 -119.047255 134 492ft 0kts
18-Apr-20 10:47 35.430007 -119.047255 134 492ft 0kts
18-Apr-20 10:48 35.430007 -119.047255 134 492ft 0kts
18-Apr-20 10:49 35.430007 -119.047255 134 492ft 0kts
18-Apr-20 10:50 35.430007 -119.047255 134 492ft 0kts

Navigation Log

Ident Type
Flight plan parsing failed, navigation log unavailable